sensor_id;sensor_type;location;lat;lon;timestamp;P1;durP1;ratioP1;P2;durP2;ratioP2
56073;SDS011;41950;55.840;37.442;2022-12-29T00:00:49;4.20;;;1.88;;
56073;SDS011;41950;55.840;37.442;2022-12-29T00:03:15;3.22;;;1.60;;
56073;SDS011;41950;55.840;37.442;2022-12-29T00:05:40;3.67;;;1.70;;
56073;SDS011;41950;55.840;37.442;2022-12-29T00:08:06;4.18;;;1.90;;
56073;SDS011;41950;55.840;37.442;2022-12-29T00:10:31;4.20;;;2.00;;
56073;SDS011;41950;55.840;37.442;2022-12-29T00:12:58;4.07;;;1.40;;
56073;SDS011;41950;55.840;37.442;2022-12-29T00:15:42;3.70;;;1.48;;
56073;SDS011;41950;55.840;37.442;2022-12-29T00:18:07;4.55;;;1.40;;
56073;SDS011;41950;55.840;37.442;2022-12-29T00:20:34;3.72;;;1.70;;
56073;SDS011;41950;55.840;37.442;2022-12-29T00:23:20;4.25;;;1.83;;
56073;SDS011;41950;55.840;37.442;2022-12-29T00:26:05;6.00;;;1.65;;
56073;SDS011;41950;55.840;37.442;2022-12-29T00:28:56;4.73;;;1.60;;
56073;SDS011;41950;55.840;37.442;2022-12-29T00:31:40;4.47;;;1.70;;
56073;SDS011;41950;55.840;37.442;2022-12-29T00:34:24;6.15;;;1.50;;
56073;SDS011;41950;55.840;37.442;2022-12-29T00:37:08;3.92;;;1.40;;
56073;SDS011;41950;55.840;37.442;2022-12-29T00:39:34;3.22;;;1.00;;
56073;SDS011;41950;55.840;37.442;2022-12-29T00:42:18;2.92;;;0.98;;
56073;SDS011;41950;55.840;37.442;2022-12-29T00:45:02;2.33;;;1.00;;
56073;SDS011;41950;55.840;37.442;2022-12-29T00:47:28;4.25;;;1.13;;
56073;SDS011;41950;55.840;37.442;2022-12-29T00:49:54;3.33;;;0.80;;
56073;SDS011;41950;55.840;37.442;2022-12-29T00:52:19;3.30;;;1.23;;
56073;SDS011;41950;55.840;37.442;2022-12-29T00:54:45;4.95;;;1.08;;
56073;SDS011;41950;55.840;37.442;2022-12-29T00:57:11;6.13;;;1.50;;
56073;SDS011;41950;55.840;37.442;2022-12-29T00:59:38;4.32;;;1.08;;
56073;SDS011;41950;55.840;37.442;2022-12-29T01:02:05;4.03;;;1.48;;
56073;SDS011;41950;55.840;37.442;2022-12-29T01:04:31;3.58;;;1.00;;
56073;SDS011;41950;55.840;37.442;2022-12-29T01:06:57;3.42;;;1.08;;
56073;SDS011;41950;55.840;37.442;2022-12-29T01:09:23;4.10;;;1.20;;
56073;SDS011;41950;55.840;37.442;2022-12-29T01:12:07;5.68;;;1.30;;
56073;SDS011;41950;55.840;37.442;2022-12-29T01:14:34;4.90;;;1.55;;
56073;SDS011;41950;55.840;37.442;2022-12-29T01:17:00;4.40;;;1.23;;
56073;SDS011;41950;55.840;37.442;2022-12-29T01:19:26;5.25;;;1.38;;
56073;SDS011;41950;55.840;37.442;2022-12-29T01:21:51;5.80;;;1.50;;
56073;SDS011;41950;55.840;37.442;2022-12-29T01:24:18;4.75;;;1.27;;
56073;SDS011;41950;55.840;37.442;2022-12-29T01:26:45;4.75;;;1.35;;
56073;SDS011;41950;55.840;37.442;2022-12-29T01:29:10;4.70;;;1.33;;
56073;SDS011;41950;55.840;37.442;2022-12-29T01:31:36;4.65;;;1.33;;
56073;SDS011;41950;55.840;37.442;2022-12-29T01:34:02;3.95;;;1.25;;
56073;SDS011;41950;55.840;37.442;2022-12-29T01:36:28;4.97;;;1.20;;
56073;SDS011;41950;55.840;37.442;2022-12-29T01:38:53;3.97;;;1.17;;
56073;SDS011;41950;55.840;37.442;2022-12-29T01:41:19;5.32;;;1.48;;
56073;SDS011;41950;55.840;37.442;2022-12-29T01:43:49;5.28;;;1.30;;
56073;SDS011;41950;55.840;37.442;2022-12-29T01:49:12;5.40;;;1.30;;
56073;SDS011;41950;55.840;37.442;2022-12-29T01:51:45;4.90;;;1.55;;
56073;SDS011;41950;55.840;37.442;2022-12-29T01:54:23;4.15;;;1.33;;
56073;SDS011;41950;55.840;37.442;2022-12-29T01:56:52;8.05;;;1.88;;
56073;SDS011;41950;55.840;37.442;2022-12-29T01:59:22;3.80;;;1.40;;
56073;SDS011;41950;55.840;37.442;2022-12-29T02:01:52;7.00;;;1.73;;
56073;SDS011;41950;55.840;37.442;2022-12-29T02:04:19;4.70;;;1.40;;
56073;SDS011;41950;55.840;37.442;2022-12-29T02:06:54;6.43;;;1.35;;
56073;SDS011;41950;55.840;37.442;2022-12-29T02:09:23;4.40;;;1.45;;
56073;SDS011;41950;55.840;37.442;2022-12-29T02:11:49;4.65;;;1.52;;
56073;SDS011;41950;55.840;37.442;2022-12-29T02:14:15;6.22;;;1.60;;
56073;SDS011;41950;55.840;37.442;2022-12-29T02:30:37;5.32;;;1.50;;
56073;SDS011;41950;55.840;37.442;2022-12-29T02:44:43;6.63;;;1.55;;
56073;SDS011;41950;55.840;37.442;2022-12-29T02:50:22;5.00;;;1.52;;
56073;SDS011;41950;55.840;37.442;2022-12-29T02:52:54;4.97;;;1.45;;
56073;SDS011;41950;55.840;37.442;2022-12-29T02:55:47;6.65;;;2.17;;
56073;SDS011;41950;55.840;37.442;2022-12-29T02:58:21;4.15;;;1.50;;
56073;SDS011;41950;55.840;37.442;2022-12-29T03:00:53;5.63;;;1.83;;
56073;SDS011;41950;55.840;37.442;2022-12-29T03:06:56;3.78;;;1.70;;
56073;SDS011;41950;55.840;37.442;2022-12-29T03:16:52;5.57;;;1.60;;
56073;SDS011;41950;55.840;37.442;2022-12-29T03:19:23;6.03;;;1.80;;
56073;SDS011;41950;55.840;37.442;2022-12-29T03:22:22;4.80;;;1.65;;
56073;SDS011;41950;55.840;37.442;2022-12-29T03:24:54;5.45;;;1.40;;
56073;SDS011;41950;55.840;37.442;2022-12-29T03:27:34;6.15;;;1.80;;
56073;SDS011;41950;55.840;37.442;2022-12-29T03:30:06;5.18;;;1.52;;
56073;SDS011;41950;55.840;37.442;2022-12-29T03:32:35;5.80;;;1.75;;
56073;SDS011;41950;55.840;37.442;2022-12-29T03:35:05;5.45;;;2.00;;
56073;SDS011;41950;55.840;37.442;2022-12-29T03:37:37;6.57;;;1.85;;
56073;SDS011;41950;55.840;37.442;2022-12-29T03:40:06;4.78;;;1.90;;
56073;SDS011;41950;55.840;37.442;2022-12-29T03:42:33;6.55;;;1.85;;
56073;SDS011;41950;55.840;37.442;2022-12-29T03:45:01;4.25;;;1.58;;
56073;SDS011;41950;55.840;37.442;2022-12-29T03:47:29;7.25;;;2.33;;
56073;SDS011;41950;55.840;37.442;2022-12-29T03:49:55;5.00;;;1.98;;
56073;SDS011;41950;55.840;37.442;2022-12-29T03:52:20;3.47;;;1.48;;
56073;SDS011;41950;55.840;37.442;2022-12-29T03:54:46;5.90;;;2.00;;
56073;SDS011;41950;55.840;37.442;2022-12-29T03:57:12;4.88;;;1.83;;
56073;SDS011;41950;55.840;37.442;2022-12-29T03:59:38;4.55;;;1.65;;
56073;SDS011;41950;55.840;37.442;2022-12-29T04:02:03;5.45;;;2.00;;
56073;SDS011;41950;55.840;37.442;2022-12-29T04:04:29;4.15;;;1.02;;
56073;SDS011;41950;55.840;37.442;2022-12-29T04:06:54;3.97;;;1.65;;
56073;SDS011;41950;55.840;37.442;2022-12-29T04:09:20;5.28;;;1.60;;
56073;SDS011;41950;55.840;37.442;2022-12-29T04:11:45;2.70;;;1.10;;
56073;SDS011;41950;55.840;37.442;2022-12-29T04:14:11;5.05;;;1.48;;
56073;SDS011;41950;55.840;37.442;2022-12-29T04:16:37;3.67;;;1.15;;
56073;SDS011;41950;55.840;37.442;2022-12-29T04:19:06;4.40;;;1.20;;
56073;SDS011;41950;55.840;37.442;2022-12-29T04:21:32;3.15;;;1.10;;
56073;SDS011;41950;55.840;37.442;2022-12-29T04:23:58;1.92;;;0.80;;
56073;SDS011;41950;55.840;37.442;2022-12-29T04:26:23;4.38;;;1.85;;
56073;SDS011;41950;55.840;37.442;2022-12-29T04:28:49;3.42;;;1.13;;
56073;SDS011;41950;55.840;37.442;2022-12-29T04:31:15;5.07;;;1.40;;
56073;SDS011;41950;55.840;37.442;2022-12-29T04:33:40;5.45;;;1.70;;
56073;SDS011;41950;55.840;37.442;2022-12-29T04:36:06;1.85;;;0.90;;
56073;SDS011;41950;55.840;37.442;2022-12-29T04:38:32;6.60;;;1.90;;
56073;SDS011;41950;55.840;37.442;2022-12-29T04:41:00;4.70;;;1.52;;
56073;SDS011;41950;55.840;37.442;2022-12-29T04:43:26;5.60;;;1.90;;
56073;SDS011;41950;55.840;37.442;2022-12-29T04:45:52;6.32;;;1.98;;
56073;SDS011;41950;55.840;37.442;2022-12-29T04:48:18;4.88;;;1.75;;
56073;SDS011;41950;55.840;37.442;2022-12-29T04:50:44;5.00;;;1.80;;
56073;SDS011;41950;55.840;37.442;2022-12-29T04:53:12;6.15;;;2.38;;
56073;SDS011;41950;55.840;37.442;2022-12-29T04:55:38;7.30;;;2.00;;
56073;SDS011;41950;55.840;37.442;2022-12-29T04:58:04;4.70;;;2.05;;
56073;SDS011;41950;55.840;37.442;2022-12-29T05:00:29;5.03;;;2.03;;
56073;SDS011;41950;55.840;37.442;2022-12-29T05:02:55;6.53;;;2.10;;
56073;SDS011;41950;55.840;37.442;2022-12-29T05:05:20;5.25;;;1.88;;
56073;SDS011;41950;55.840;37.442;2022-12-29T05:07:46;5.47;;;2.35;;
56073;SDS011;41950;55.840;37.442;2022-12-29T05:10:14;5.80;;;2.50;;
56073;SDS011;41950;55.840;37.442;2022-12-29T05:12:40;6.43;;;2.40;;
56073;SDS011;41950;55.840;37.442;2022-12-29T05:15:06;6.43;;;2.00;;
56073;SDS011;41950;55.840;37.442;2022-12-29T05:17:32;5.82;;;2.13;;
56073;SDS011;41950;55.840;37.442;2022-12-29T05:19:58;5.40;;;1.90;;
56073;SDS011;41950;55.840;37.442;2022-12-29T05:22:24;6.30;;;2.17;;
56073;SDS011;41950;55.840;37.442;2022-12-29T05:24:56;4.85;;;2.35;;
56073;SDS011;41950;55.840;37.442;2022-12-29T05:27:21;6.55;;;2.60;;
56073;SDS011;41950;55.840;37.442;2022-12-29T05:29:47;6.75;;;2.75;;
56073;SDS011;41950;55.840;37.442;2022-12-29T05:32:12;5.95;;;2.83;;
56073;SDS011;41950;55.840;37.442;2022-12-29T05:34:38;6.43;;;3.03;;
56073;SDS011;41950;55.840;37.442;2022-12-29T05:37:04;7.40;;;3.25;;
56073;SDS011;41950;55.840;37.442;2022-12-29T05:39:29;7.10;;;3.83;;
56073;SDS011;41950;55.840;37.442;2022-12-29T05:42:00;6.38;;;3.08;;
56073;SDS011;41950;55.840;37.442;2022-12-29T05:44:35;7.93;;;3.58;;
56073;SDS011;41950;55.840;37.442;2022-12-29T05:47:00;8.07;;;3.20;;
56073;SDS011;41950;55.840;37.442;2022-12-29T05:49:26;6.32;;;3.40;;
56073;SDS011;41950;55.840;37.442;2022-12-29T05:51:52;7.53;;;2.95;;
56073;SDS011;41950;55.840;37.442;2022-12-29T05:54:17;8.38;;;3.70;;
56073;SDS011;41950;55.840;37.442;2022-12-29T05:56:54;6.88;;;3.67;;
56073;SDS011;41950;55.840;37.442;2022-12-29T05:59:20;8.77;;;3.72;;
56073;SDS011;41950;55.840;37.442;2022-12-29T06:01:45;6.18;;;3.72;;
56073;SDS011;41950;55.840;37.442;2022-12-29T06:04:11;7.60;;;3.83;;
56073;SDS011;41950;55.840;37.442;2022-12-29T06:06:37;8.88;;;4.13;;
56073;SDS011;41950;55.840;37.442;2022-12-29T06:09:03;6.90;;;3.65;;
56073;SDS011;41950;55.840;37.442;2022-12-29T06:11:29;8.95;;;3.97;;
56073;SDS011;41950;55.840;37.442;2022-12-29T06:13:55;8.77;;;4.15;;
56073;SDS011;41950;55.840;37.442;2022-12-29T06:16:20;8.32;;;4.00;;
56073;SDS011;41950;55.840;37.442;2022-12-29T06:18:46;9.57;;;4.50;;
56073;SDS011;41950;55.840;37.442;2022-12-29T06:21:11;6.65;;;3.90;;
56073;SDS011;41950;55.840;37.442;2022-12-29T06:23:37;9.10;;;4.20;;
56073;SDS011;41950;55.840;37.442;2022-12-29T06:26:02;8.10;;;4.00;;
56073;SDS011;41950;55.840;37.442;2022-12-29T06:28:28;9.40;;;4.45;;
56073;SDS011;41950;55.840;37.442;2022-12-29T06:30:54;8.38;;;4.00;;
56073;SDS011;41950;55.840;37.442;2022-12-29T06:33:19;7.57;;;3.78;;
56073;SDS011;41950;55.840;37.442;2022-12-29T06:35:45;7.35;;;3.33;;
56073;SDS011;41950;55.840;37.442;2022-12-29T06:38:11;9.35;;;3.70;;
56073;SDS011;41950;55.840;37.442;2022-12-29T06:40:37;7.63;;;3.53;;
56073;SDS011;41950;55.840;37.442;2022-12-29T06:43:03;6.60;;;2.70;;
56073;SDS011;41950;55.840;37.442;2022-12-29T06:45:28;4.95;;;3.08;;
56073;SDS011;41950;55.840;37.442;2022-12-29T06:47:54;7.93;;;3.15;;
56073;SDS011;41950;55.840;37.442;2022-12-29T06:50:20;7.60;;;3.65;;
56073;SDS011;41950;55.840;37.442;2022-12-29T06:52:45;6.20;;;3.55;;
56073;SDS011;41950;55.840;37.442;2022-12-29T06:55:11;6.43;;;3.28;;
56073;SDS011;41950;55.840;37.442;2022-12-29T06:57:36;8.15;;;3.72;;
56073;SDS011;41950;55.840;37.442;2022-12-29T07:00:03;7.95;;;3.67;;
56073;SDS011;41950;55.840;37.442;2022-12-29T07:02:30;6.82;;;3.60;;
56073;SDS011;41950;55.840;37.442;2022-12-29T07:04:55;6.25;;;3.45;;
56073;SDS011;41950;55.840;37.442;2022-12-29T07:07:21;7.38;;;3.33;;
56073;SDS011;41950;55.840;37.442;2022-12-29T07:09:47;6.97;;;3.63;;
56073;SDS011;41950;55.840;37.442;2022-12-29T07:12:13;7.07;;;4.22;;
56073;SDS011;41950;55.840;37.442;2022-12-29T07:14:39;8.38;;;3.42;;
56073;SDS011;41950;55.840;37.442;2022-12-29T07:17:04;6.63;;;3.85;;
56073;SDS011;41950;55.840;37.442;2022-12-29T07:19:31;8.77;;;4.20;;
56073;SDS011;41950;55.840;37.442;2022-12-29T07:21:58;8.25;;;4.07;;
56073;SDS011;41950;55.840;37.442;2022-12-29T07:24:24;11.50;;;4.82;;
56073;SDS011;41950;55.840;37.442;2022-12-29T07:26:53;8.23;;;4.40;;
56073;SDS011;41950;55.840;37.442;2022-12-29T07:29:18;6.32;;;3.17;;
56073;SDS011;41950;55.840;37.442;2022-12-29T07:31:44;10.30;;;4.30;;
56073;SDS011;41950;55.840;37.442;2022-12-29T07:34:09;6.85;;;3.63;;
56073;SDS011;41950;55.840;37.442;2022-12-29T07:36:35;7.20;;;3.45;;
56073;SDS011;41950;55.840;37.442;2022-12-29T07:39:01;7.20;;;3.63;;
56073;SDS011;41950;55.840;37.442;2022-12-29T07:41:28;4.35;;;2.97;;
56073;SDS011;41950;55.840;37.442;2022-12-29T07:43:53;6.32;;;4.10;;
56073;SDS011;41950;55.840;37.442;2022-12-29T07:46:19;8.57;;;3.95;;
56073;SDS011;41950;55.840;37.442;2022-12-29T07:48:44;6.20;;;3.97;;
56073;SDS011;41950;55.840;37.442;2022-12-29T07:51:10;8.05;;;4.05;;
56073;SDS011;41950;55.840;37.442;2022-12-29T07:53:36;8.85;;;3.83;;
56073;SDS011;41950;55.840;37.442;2022-12-29T07:56:02;5.97;;;3.22;;
56073;SDS011;41950;55.840;37.442;2022-12-29T07:58:28;5.38;;;3.47;;
56073;SDS011;41950;55.840;37.442;2022-12-29T08:00:54;7.75;;;4.20;;
56073;SDS011;41950;55.840;37.442;2022-12-29T08:03:20;9.02;;;3.85;;
56073;SDS011;41950;55.840;37.442;2022-12-29T08:05:46;8.65;;;3.83;;
56073;SDS011;41950;55.840;37.442;2022-12-29T08:08:11;7.30;;;3.88;;
56073;SDS011;41950;55.840;37.442;2022-12-29T08:10:37;8.05;;;4.38;;
56073;SDS011;41950;55.840;37.442;2022-12-29T08:13:02;8.93;;;3.67;;
56073;SDS011;41950;55.840;37.442;2022-12-29T08:15:28;8.10;;;3.60;;
56073;SDS011;41950;55.840;37.442;2022-12-29T08:17:53;5.88;;;3.50;;
56073;SDS011;41950;55.840;37.442;2022-12-29T08:20:19;7.13;;;3.30;;
56073;SDS011;41950;55.840;37.442;2022-12-29T08:22:45;8.60;;;3.78;;
56073;SDS011;41950;55.840;37.442;2022-12-29T08:25:10;6.35;;;2.95;;
56073;SDS011;41950;55.840;37.442;2022-12-29T08:27:36;7.20;;;4.07;;
56073;SDS011;41950;55.840;37.442;2022-12-29T08:30:01;10.48;;;5.15;;
56073;SDS011;41950;55.840;37.442;2022-12-29T08:32:28;6.05;;;3.85;;
56073;SDS011;41950;55.840;37.442;2022-12-29T08:34:55;6.38;;;3.30;;
56073;SDS011;41950;55.840;37.442;2022-12-29T08:37:20;5.22;;;4.10;;
56073;SDS011;41950;55.840;37.442;2022-12-29T08:39:47;6.70;;;3.35;;
56073;SDS011;41950;55.840;37.442;2022-12-29T08:42:13;6.88;;;3.53;;
56073;SDS011;41950;55.840;37.442;2022-12-29T08:44:39;6.63;;;2.75;;
56073;SDS011;41950;55.840;37.442;2022-12-29T08:47:04;7.55;;;3.50;;
56073;SDS011;41950;55.840;37.442;2022-12-29T08:49:30;7.13;;;3.30;;
56073;SDS011;41950;55.840;37.442;2022-12-29T08:51:58;6.60;;;3.20;;
56073;SDS011;41950;55.840;37.442;2022-12-29T08:54:24;8.40;;;3.15;;
56073;SDS011;41950;55.840;37.442;2022-12-29T08:56:49;6.20;;;3.13;;
56073;SDS011;41950;55.840;37.442;2022-12-29T08:59:15;4.90;;;2.75;;
56073;SDS011;41950;55.840;37.442;2022-12-29T09:01:41;9.55;;;3.47;;
56073;SDS011;41950;55.840;37.442;2022-12-29T09:04:06;7.03;;;3.50;;
56073;SDS011;41950;55.840;37.442;2022-12-29T09:06:33;6.32;;;3.72;;
56073;SDS011;41950;55.840;37.442;2022-12-29T09:08:58;7.30;;;3.33;;
56073;SDS011;41950;55.840;37.442;2022-12-29T09:11:24;9.30;;;4.03;;
56073;SDS011;41950;55.840;37.442;2022-12-29T09:13:51;6.43;;;3.45;;
56073;SDS011;41950;55.840;37.442;2022-12-29T09:16:18;6.80;;;2.85;;
56073;SDS011;41950;55.840;37.442;2022-12-29T09:18:46;4.50;;;2.65;;
56073;SDS011;41950;55.840;37.442;2022-12-29T09:21:12;7.03;;;4.13;;
56073;SDS011;41950;55.840;37.442;2022-12-29T09:23:38;7.88;;;3.80;;
56073;SDS011;41950;55.840;37.442;2022-12-29T09:26:04;7.20;;;4.15;;
56073;SDS011;41950;55.840;37.442;2022-12-29T09:28:30;6.30;;;3.58;;
56073;SDS011;41950;55.840;37.442;2022-12-29T09:30:57;7.45;;;4.20;;
56073;SDS011;41950;55.840;37.442;2022-12-29T09:33:23;7.13;;;3.97;;
56073;SDS011;41950;55.840;37.442;2022-12-29T09:35:51;7.55;;;4.07;;
56073;SDS011;41950;55.840;37.442;2022-12-29T09:38:18;7.45;;;4.80;;
56073;SDS011;41950;55.840;37.442;2022-12-29T09:40:45;7.57;;;4.20;;
56073;SDS011;41950;55.840;37.442;2022-12-29T09:45:49;6.75;;;4.75;;
56073;SDS011;41950;55.840;37.442;2022-12-29T09:48:29;9.02;;;4.80;;
56073;SDS011;41950;55.840;37.442;2022-12-29T09:51:03;9.27;;;5.32;;
56073;SDS011;41950;55.840;37.442;2022-12-29T09:53:36;8.93;;;5.13;;
56073;SDS011;41950;55.840;37.442;2022-12-29T09:56:05;9.38;;;6.38;;
56073;SDS011;41950;55.840;37.442;2022-12-29T09:58:43;10.10;;;7.00;;
56073;SDS011;41950;55.840;37.442;2022-12-29T10:04:08;8.35;;;5.15;;
56073;SDS011;41950;55.840;37.442;2022-12-29T10:25:25;16.63;;;7.60;;
56073;SDS011;41950;55.840;37.442;2022-12-29T10:27:55;11.60;;;7.28;;
56073;SDS011;41950;55.840;37.442;2022-12-29T10:30:24;10.77;;;7.32;;
56073;SDS011;41950;55.840;37.442;2022-12-29T10:32:57;11.88;;;7.00;;
56073;SDS011;41950;55.840;37.442;2022-12-29T10:35:29;10.07;;;6.93;;
56073;SDS011;41950;55.840;37.442;2022-12-29T10:41:08;8.27;;;6.68;;
56073;SDS011;41950;55.840;37.442;2022-12-29T10:43:43;9.68;;;7.13;;
56073;SDS011;41950;55.840;37.442;2022-12-29T10:46:15;7.90;;;6.35;;
56073;SDS011;41950;55.840;37.442;2022-12-29T10:49:01;8.90;;;6.72;;
56073;SDS011;41950;55.840;37.442;2022-12-29T10:53:57;10.77;;;6.85;;
56073;SDS011;41950;55.840;37.442;2022-12-29T10:56:51;10.05;;;6.47;;
56073;SDS011;41950;55.840;37.442;2022-12-29T10:59:30;8.27;;;6.47;;
56073;SDS011;41950;55.840;37.442;2022-12-29T11:02:15;9.52;;;5.82;;
56073;SDS011;41950;55.840;37.442;2022-12-29T11:05:02;8.23;;;6.22;;
56073;SDS011;41950;55.840;37.442;2022-12-29T11:07:34;9.75;;;5.82;;
56073;SDS011;41950;55.840;37.442;2022-12-29T11:13:00;9.48;;;6.32;;
56073;SDS011;41950;55.840;37.442;2022-12-29T11:15:39;8.45;;;6.57;;
56073;SDS011;41950;55.840;37.442;2022-12-29T11:18:17;11.30;;;6.65;;
56073;SDS011;41950;55.840;37.442;2022-12-29T11:21:00;10.57;;;6.00;;
56073;SDS011;41950;55.840;37.442;2022-12-29T11:26:14;7.82;;;6.10;;
56073;SDS011;41950;55.840;37.442;2022-12-29T11:28:44;10.85;;;6.75;;
56073;SDS011;41950;55.840;37.442;2022-12-29T11:31:15;8.90;;;6.30;;
56073;SDS011;41950;55.840;37.442;2022-12-29T11:33:42;10.77;;;6.47;;
56073;SDS011;41950;55.840;37.442;2022-12-29T11:38:49;9.20;;;6.05;;
56073;SDS011;41950;55.840;37.442;2022-12-29T11:41:21;8.55;;;5.97;;
56073;SDS011;41950;55.840;37.442;2022-12-29T11:43:49;8.00;;;6.13;;
56073;SDS011;41950;55.840;37.442;2022-12-29T11:46:17;8.20;;;5.68;;
56073;SDS011;41950;55.840;37.442;2022-12-29T11:48:45;9.15;;;6.53;;
56073;SDS011;41950;55.840;37.442;2022-12-29T11:51:12;11.50;;;6.03;;
56073;SDS011;41950;55.840;37.442;2022-12-29T11:53:50;7.38;;;5.80;;
56073;SDS011;41950;55.840;37.442;2022-12-29T11:56:22;6.93;;;5.55;;
56073;SDS011;41950;55.840;37.442;2022-12-29T12:01:55;9.82;;;6.57;;
56073;SDS011;41950;55.840;37.442;2022-12-29T12:04:24;9.82;;;6.28;;
56073;SDS011;41950;55.840;37.442;2022-12-29T12:12:02;10.32;;;6.72;;
56073;SDS011;41950;55.840;37.442;2022-12-29T12:14:38;9.00;;;6.80;;
56073;SDS011;41950;55.840;37.442;2022-12-29T12:17:15;9.88;;;7.05;;
56073;SDS011;41950;55.840;37.442;2022-12-29T12:22:31;10.10;;;7.00;;
56073;SDS011;41950;55.840;37.442;2022-12-29T12:25:04;10.35;;;6.10;;
56073;SDS011;41950;55.840;37.442;2022-12-29T12:27:39;8.88;;;5.53;;
56073;SDS011;41950;55.840;37.442;2022-12-29T12:30:19;7.75;;;5.22;;
56073;SDS011;41950;55.840;37.442;2022-12-29T12:35:36;8.80;;;5.47;;
56073;SDS011;41950;55.840;37.442;2022-12-29T12:38:15;10.50;;;5.60;;
56073;SDS011;41950;55.840;37.442;2022-12-29T12:41:08;8.27;;;5.57;;
56073;SDS011;41950;55.840;37.442;2022-12-29T12:43:38;11.23;;;6.10;;
56073;SDS011;41950;55.840;37.442;2022-12-29T12:54:24;10.38;;;6.30;;
56073;SDS011;41950;55.840;37.442;2022-12-29T12:57:19;7.53;;;6.00;;
56073;SDS011;41950;55.840;37.442;2022-12-29T13:00:07;8.88;;;6.28;;
56073;SDS011;41950;55.840;37.442;2022-12-29T13:02:40;12.50;;;6.75;;
56073;SDS011;41950;55.840;37.442;2022-12-29T13:21:44;13.02;;;8.43;;
56073;SDS011;41950;55.840;37.442;2022-12-29T13:24:28;15.35;;;8.32;;
56073;SDS011;41950;55.840;37.442;2022-12-29T13:29:36;12.05;;;8.35;;
56073;SDS011;41950;55.840;37.442;2022-12-29T13:37:28;12.25;;;8.45;;
56073;SDS011;41950;55.840;37.442;2022-12-29T13:40:04;11.90;;;8.65;;
56073;SDS011;41950;55.840;37.442;2022-12-29T13:42:39;11.10;;;7.95;;
56073;SDS011;41950;55.840;37.442;2022-12-29T13:45:10;14.07;;;8.85;;
56073;SDS011;41950;55.840;37.442;2022-12-29T13:47:44;11.25;;;8.52;;
56073;SDS011;41950;55.840;37.442;2022-12-29T13:50:19;14.80;;;9.45;;
56073;SDS011;41950;55.840;37.442;2022-12-29T13:55:57;12.63;;;9.27;;
56073;SDS011;41950;55.840;37.442;2022-12-29T14:04:11;15.13;;;10.23;;
56073;SDS011;41950;55.840;37.442;2022-12-29T14:06:38;13.45;;;9.98;;
56073;SDS011;41950;55.840;37.442;2022-12-29T14:09:06;15.32;;;10.18;;
56073;SDS011;41950;55.840;37.442;2022-12-29T14:14:25;12.52;;;9.40;;
56073;SDS011;41950;55.840;37.442;2022-12-29T14:17:04;14.15;;;10.00;;
56073;SDS011;41950;55.840;37.442;2022-12-29T14:19:36;13.88;;;10.30;;
56073;SDS011;41950;55.840;37.442;2022-12-29T14:22:06;14.10;;;9.50;;
56073;SDS011;41950;55.840;37.442;2022-12-29T14:27:00;15.43;;;9.73;;
56073;SDS011;41950;55.840;37.442;2022-12-29T14:32:09;14.68;;;9.35;;
56073;SDS011;41950;55.840;37.442;2022-12-29T14:34:58;17.90;;;11.50;;
56073;SDS011;41950;55.840;37.442;2022-12-29T14:37:26;16.42;;;11.45;;
56073;SDS011;41950;55.840;37.442;2022-12-29T14:42:28;15.88;;;11.55;;
56073;SDS011;41950;55.840;37.442;2022-12-29T14:45:40;15.13;;;10.65;;
56073;SDS011;41950;55.840;37.442;2022-12-29T14:47:42;16.90;;;10.65;;
56073;SDS011;41950;55.840;37.442;2022-12-29T14:52:48;16.27;;;10.52;;
56073;SDS011;41950;55.840;37.442;2022-12-29T14:57:59;15.68;;;11.80;;
56073;SDS011;41950;55.840;37.442;2022-12-29T15:00:30;17.30;;;11.70;;
56073;SDS011;41950;55.840;37.442;2022-12-29T15:03:04;18.30;;;12.65;;
56073;SDS011;41950;55.840;37.442;2022-12-29T15:08:12;17.10;;;12.00;;
56073;SDS011;41950;55.840;37.442;2022-12-29T15:10:53;15.88;;;12.55;;
56073;SDS011;41950;55.840;37.442;2022-12-29T15:13:33;18.15;;;12.20;;
56073;SDS011;41950;55.840;37.442;2022-12-29T15:16:01;21.05;;;11.85;;
56073;SDS011;41950;55.840;37.442;2022-12-29T15:18:31;17.60;;;12.00;;
56073;SDS011;41950;55.840;37.442;2022-12-29T15:20:59;17.95;;;12.65;;
56073;SDS011;41950;55.840;37.442;2022-12-29T15:23:27;19.45;;;12.63;;
56073;SDS011;41950;55.840;37.442;2022-12-29T15:28:40;17.92;;;13.15;;
56073;SDS011;41950;55.840;37.442;2022-12-29T15:33:40;20.58;;;13.65;;
56073;SDS011;41950;55.840;37.442;2022-12-29T15:36:14;20.08;;;14.15;;
56073;SDS011;41950;55.840;37.442;2022-12-29T15:38:47;20.88;;;13.45;;
56073;SDS011;41950;55.840;37.442;2022-12-29T15:46:26;20.00;;;13.45;;
56073;SDS011;41950;55.840;37.442;2022-12-29T15:48:55;18.95;;;13.73;;
56073;SDS011;41950;55.840;37.442;2022-12-29T15:51:30;20.45;;;14.35;;
56073;SDS011;41950;55.840;37.442;2022-12-29T15:54:00;19.27;;;13.75;;
56073;SDS011;41950;55.840;37.442;2022-12-29T15:56:28;22.10;;;13.73;;
56073;SDS011;41950;55.840;37.442;2022-12-29T15:58:54;18.90;;;13.63;;
56073;SDS011;41950;55.840;37.442;2022-12-29T16:01:24;20.00;;;14.50;;
56073;SDS011;41950;55.840;37.442;2022-12-29T16:03:55;20.02;;;14.75;;
56073;SDS011;41950;55.840;37.442;2022-12-29T16:06:27;20.48;;;14.82;;
56073;SDS011;41950;55.840;37.442;2022-12-29T16:09:04;21.70;;;15.38;;
56073;SDS011;41950;55.840;37.442;2022-12-29T16:13:57;19.98;;;14.60;;
56073;SDS011;41950;55.840;37.442;2022-12-29T16:18:53;25.80;;;15.60;;
56073;SDS011;41950;55.840;37.442;2022-12-29T16:21:22;22.20;;;15.27;;
56073;SDS011;41950;55.840;37.442;2022-12-29T16:23:53;20.40;;;14.77;;
56073;SDS011;41950;55.840;37.442;2022-12-29T16:26:23;20.83;;;15.13;;
56073;SDS011;41950;55.840;37.442;2022-12-29T16:28:50;19.33;;;13.93;;
56073;SDS011;41950;55.840;37.442;2022-12-29T16:48:09;26.15;;;15.52;;
56073;SDS011;41950;55.840;37.442;2022-12-29T16:50:42;23.48;;;15.23;;
56073;SDS011;41950;55.840;37.442;2022-12-29T16:55:49;21.55;;;15.35;;
56073;SDS011;41950;55.840;37.442;2022-12-29T16:58:26;19.98;;;14.70;;
56073;SDS011;41950;55.840;37.442;2022-12-29T17:00:56;20.80;;;14.75;;
56073;SDS011;41950;55.840;37.442;2022-12-29T17:06:22;20.10;;;14.77;;
56073;SDS011;41950;55.840;37.442;2022-12-29T17:08:48;20.20;;;15.10;;
56073;SDS011;41950;55.840;37.442;2022-12-29T17:11:26;21.80;;;14.75;;
56073;SDS011;41950;55.840;37.442;2022-12-29T17:14:31;22.85;;;14.05;;
56073;SDS011;41950;55.840;37.442;2022-12-29T17:17:08;20.45;;;15.02;;
56073;SDS011;41950;55.840;37.442;2022-12-29T17:19:38;20.70;;;15.00;;
56073;SDS011;41950;55.840;37.442;2022-12-29T17:22:20;24.23;;;15.88;;
56073;SDS011;41950;55.840;37.442;2022-12-29T17:24:50;20.42;;;14.75;;
56073;SDS011;41950;55.840;37.442;2022-12-29T17:29:57;21.40;;;14.20;;
56073;SDS011;41950;55.840;37.442;2022-12-29T17:32:28;22.75;;;14.48;;
56073;SDS011;41950;55.840;37.442;2022-12-29T17:34:54;20.58;;;14.38;;
56073;SDS011;41950;55.840;37.442;2022-12-29T17:39:49;22.58;;;16.00;;
56073;SDS011;41950;55.840;37.442;2022-12-29T17:42:14;23.70;;;15.65;;
56073;SDS011;41950;55.840;37.442;2022-12-29T17:44:42;21.00;;;16.05;;
56073;SDS011;41950;55.840;37.442;2022-12-29T17:47:10;21.77;;;13.95;;
56073;SDS011;41950;55.840;37.442;2022-12-29T17:49:36;20.55;;;14.82;;
56073;SDS011;41950;55.840;37.442;2022-12-29T17:52:03;24.02;;;15.88;;
56073;SDS011;41950;55.840;37.442;2022-12-29T17:54:29;24.33;;;15.40;;
56073;SDS011;41950;55.840;37.442;2022-12-29T17:56:55;26.65;;;15.90;;
56073;SDS011;41950;55.840;37.442;2022-12-29T17:59:21;22.10;;;15.80;;